createdAt,value
2023-05-05T00:00:16.192Z,103.04
2023-05-05T00:01:16.210Z,101.07
2023-05-05T00:02:16.209Z,102.87
2023-05-05T00:03:16.218Z,101.51
2023-05-05T00:04:16.197Z,103.53
2023-05-05T00:05:16.151Z,104.83
2023-05-05T00:06:16.245Z,104.43
2023-05-05T00:07:16.194Z,101.88
2023-05-05T00:08:16.125Z,102.34
2023-05-05T00:09:16.138Z,103.55
2023-05-05T00:10:16.128Z,101.39
2023-05-05T00:11:16.122Z,102.36
2023-05-05T00:12:16.116Z,102.64
2023-05-05T00:13:16.089Z,102.12
2023-05-05T00:14:16.088Z,101.08
2023-05-05T00:15:16.061Z,100.76
2023-05-05T00:16:16.134Z,100.84
2023-05-05T00:17:16.150Z,98.41
2023-05-05T00:18:16.159Z,101.29
2023-05-05T00:19:16.164Z,98.90
2023-05-05T00:20:16.154Z,101.10
2023-05-05T00:21:16.183Z,100.72
2023-05-05T00:22:16.178Z,99.45
2023-05-05T00:23:16.235Z,99.42
2023-05-05T00:24:16.238Z,99.26
2023-05-05T00:25:16.265Z,97.25
2023-05-05T00:26:16.291Z,98.44
2023-05-05T00:27:16.272Z,98.54
2023-05-05T00:28:16.325Z,98.53
2023-05-05T00:29:16.308Z,97.71
2023-05-05T00:30:16.305Z,97.90
2023-05-05T00:31:16.469Z,97.49
2023-05-05T00:32:16.348Z,97.48
2023-05-05T00:33:16.385Z,97.86
2023-05-05T00:34:16.382Z,96.13
2023-05-05T00:35:16.401Z,96.71
2023-05-05T00:36:16.435Z,96.31
2023-05-05T00:37:16.455Z,95.80
2023-05-05T00:38:16.465Z,96.19
2023-05-05T00:39:16.477Z,97.51
2023-05-05T00:40:16.509Z,96.50
2023-05-05T00:41:16.531Z,95.54
2023-05-05T00:42:16.579Z,95.40
2023-05-05T00:43:16.555Z,95.59
2023-05-05T00:44:16.589Z,95.50
2023-05-05T00:45:16.598Z,95.63
2023-05-05T00:46:16.680Z,97.30
2023-05-05T00:47:16.710Z,94.55
2023-05-05T00:48:16.683Z,93.96
2023-05-05T00:49:16.710Z,95.04
2023-05-05T00:50:16.705Z,95.92
2023-05-05T00:51:16.764Z,95.83
2023-05-05T00:52:16.765Z,95.14
2023-05-05T00:53:16.758Z,95.80
2023-05-05T00:54:16.797Z,95.39
2023-05-05T00:55:16.820Z,95.31
2023-05-05T00:56:16.834Z,96.18
2023-05-05T00:57:16.867Z,94.98
2023-05-05T00:58:16.896Z,95.04
2023-05-05T00:59:16.886Z,95.06
2023-05-05T01:00:16.972Z,94.53
2023-05-05T01:01:16.992Z,94.02
2023-05-05T01:02:16.978Z,93.81
2023-05-05T01:03:17.095Z,94.46
2023-05-05T01:04:17.019Z,94.26
2023-05-05T01:05:17.038Z,93.45
2023-05-05T01:06:17.091Z,92.84
2023-05-05T01:07:17.094Z,93.16
2023-05-05T01:08:17.118Z,95.38
2023-05-05T01:09:17.122Z,92.40
2023-05-05T01:10:20.227Z,94.58
2023-05-05T01:11:17.162Z,95.23
2023-05-05T01:12:17.151Z,94.54
2023-05-05T01:13:17.147Z,94.61
2023-05-05T01:14:17.160Z,94.62
2023-05-05T01:15:17.135Z,93.89
2023-05-05T01:16:17.179Z,92.83
2023-05-05T01:17:17.116Z,94.45
2023-05-05T01:18:17.116Z,93.38
2023-05-05T01:19:17.123Z,92.42
2023-05-05T01:20:17.125Z,94.63
2023-05-05T01:21:17.130Z,92.34
2023-05-05T01:22:17.064Z,91.54
2023-05-05T01:23:17.100Z,90.04
2023-05-05T01:24:17.077Z,92.95
2023-05-05T01:25:17.064Z,91.80
2023-05-05T01:26:17.065Z,92.08
2023-05-05T01:27:17.037Z,92.20
2023-05-05T01:28:17.051Z,92.80
2023-05-05T01:29:17.108Z,91.02
2023-05-05T01:30:17.031Z,91.07
2023-05-05T01:31:17.117Z,92.20
2023-05-05T01:32:17.042Z,93.03
2023-05-05T01:33:17.015Z,91.50
2023-05-05T01:34:17.033Z,90.73
2023-05-05T01:35:17.022Z,88.91
2023-05-05T01:36:17.040Z,89.52
2023-05-05T01:37:16.963Z,89.60
2023-05-05T01:38:16.998Z,91.69
2023-05-05T01:39:16.969Z,91.90
2023-05-05T01:40:16.974Z,91.56
2023-05-05T01:41:16.951Z,90.16
2023-05-05T01:42:16.956Z,90.50
2023-05-05T01:43:16.941Z,90.10
2023-05-05T01:44:16.928Z,90.90
2023-05-05T01:45:16.920Z,89.21
2023-05-05T01:46:16.934Z,90.23
2023-05-05T01:47:16.934Z,89.66
2023-05-05T01:48:16.914Z,89.80
2023-05-05T01:49:16.871Z,90.16
2023-05-05T01:50:16.897Z,87.38
2023-05-05T01:51:16.900Z,88.35
2023-05-05T01:52:16.873Z,88.19
2023-05-05T01:53:16.874Z,88.89
2023-05-05T01:54:16.863Z,89.41
2023-05-05T01:55:16.856Z,87.92
2023-05-05T01:56:16.860Z,88.01
2023-05-05T01:57:16.859Z,87.35
2023-05-05T01:58:16.850Z,87.58
2023-05-05T01:59:16.846Z,87.89
2023-05-05T02:00:16.833Z,87.02
2023-05-05T02:01:16.841Z,86.45
2023-05-05T02:02:16.926Z,86.87
2023-05-05T02:03:17.065Z,89.10
2023-05-05T02:04:16.911Z,86.64
2023-05-05T02:05:16.961Z,86.21
2023-05-05T02:06:17.000Z,87.47
2023-05-05T02:07:17.025Z,85.95
2023-05-05T02:08:17.053Z,87.53
2023-05-05T02:09:17.068Z,87.23
2023-05-05T02:10:17.091Z,85.10
2023-05-05T02:11:17.145Z,85.87
2023-05-05T02:12:17.145Z,83.85
2023-05-05T02:13:17.254Z,86.94
2023-05-05T02:14:17.210Z,86.15
2023-05-05T02:15:17.242Z,85.57
2023-05-05T02:16:17.298Z,84.10
2023-05-05T02:17:17.313Z,87.13
2023-05-05T02:18:17.346Z,85.44
2023-05-05T02:19:17.359Z,84.53
2023-05-05T02:20:17.401Z,84.03
2023-05-05T02:21:17.413Z,83.52
2023-05-05T02:22:17.454Z,85.35
2023-05-05T02:23:17.490Z,84.36
2023-05-05T02:24:17.491Z,81.59
2023-05-05T02:25:17.538Z,83.64
2023-05-05T02:26:17.586Z,83.89
2023-05-05T02:27:17.621Z,84.84
2023-05-05T02:28:17.640Z,82.74
2023-05-05T02:29:17.674Z,82.34
2023-05-05T02:30:17.710Z,83.08
2023-05-05T02:31:17.784Z,84.74
2023-05-05T02:32:17.763Z,83.83
2023-05-05T02:33:17.820Z,83.13
2023-05-05T02:34:17.841Z,82.45
2023-05-05T02:35:17.876Z,83.86
2023-05-05T02:36:17.908Z,82.54
2023-05-05T02:37:17.928Z,82.85
2023-05-05T02:38:17.970Z,81.81
2023-05-05T02:39:17.977Z,81.18
2023-05-05T02:40:18.011Z,83.42
2023-05-05T02:41:18.088Z,81.82
2023-05-05T02:42:18.093Z,82.93
2023-05-05T02:43:18.204Z,84.14
2023-05-05T02:44:18.169Z,81.80
2023-05-05T02:45:18.206Z,83.41
2023-05-05T02:46:18.325Z,83.27
2023-05-05T02:47:18.275Z,82.38
2023-05-05T02:48:18.294Z,81.69
2023-05-05T02:49:18.325Z,80.06
2023-05-05T02:50:18.375Z,83.77
2023-05-05T02:51:18.409Z,82.04
2023-05-05T02:52:18.446Z,81.67
2023-05-05T02:53:18.448Z,80.38
2023-05-05T02:54:18.495Z,81.23
2023-05-05T02:55:18.616Z,82.55
2023-05-05T02:56:18.594Z,81.67
2023-05-05T02:57:18.610Z,82.47
2023-05-05T02:58:18.640Z,83.11
2023-05-05T02:59:18.650Z,81.09
2023-05-05T03:00:18.704Z,79.19
2023-05-05T03:01:18.750Z,80.97
2023-05-05T03:02:18.764Z,79.85
2023-05-05T03:03:18.916Z,80.96
2023-05-05T03:04:18.838Z,81.25
2023-05-05T03:05:18.862Z,80.75
2023-05-05T03:06:18.910Z,81.02
2023-05-05T03:07:18.919Z,81.04
2023-05-05T03:08:18.966Z,76.81
2023-05-05T03:09:18.992Z,79.23
2023-05-05T03:10:19.056Z,78.62
2023-05-05T03:11:19.093Z,79.93
2023-05-05T03:12:19.109Z,81.39
2023-05-05T03:13:19.118Z,81.71
2023-05-05T03:14:19.194Z,79.44
2023-05-05T03:15:19.223Z,80.66
2023-05-05T03:16:19.281Z,79.85
2023-05-05T03:17:19.297Z,78.26
2023-05-05T03:18:19.334Z,76.95
2023-05-05T03:19:19.372Z,79.73
2023-05-05T03:20:19.423Z,77.56
2023-05-05T03:21:19.441Z,78.67
2023-05-05T03:22:19.462Z,77.35
2023-05-05T03:23:19.502Z,78.29
2023-05-05T03:24:19.567Z,77.55
2023-05-05T03:25:19.574Z,76.47
2023-05-05T03:26:19.621Z,79.55
2023-05-05T03:27:19.657Z,77.35
2023-05-05T03:28:19.717Z,76.34
2023-05-05T03:29:19.771Z,78.67
2023-05-05T03:30:19.781Z,77.51
2023-05-05T03:31:19.869Z,77.41
2023-05-05T03:32:19.873Z,77.25
2023-05-05T03:33:19.935Z,80.01
2023-05-05T03:34:19.965Z,77.79
2023-05-05T03:35:19.988Z,77.99
2023-05-05T03:36:20.031Z,77.19
2023-05-05T03:37:20.049Z,77.47
2023-05-05T03:38:20.109Z,76.18
2023-05-05T03:39:20.173Z,77.26
2023-05-05T03:40:22.052Z,76.03
2023-05-05T03:41:21.214Z,76.24
2023-05-05T03:42:20.174Z,76.00
2023-05-05T03:43:20.185Z,76.57
2023-05-05T03:44:20.175Z,75.44
2023-05-05T03:45:20.160Z,75.52
2023-05-05T03:46:20.327Z,78.38
2023-05-05T03:47:20.181Z,76.15
2023-05-05T03:48:20.166Z,74.39
2023-05-05T03:49:20.145Z,74.66
2023-05-05T03:50:20.113Z,75.35
2023-05-05T03:51:20.150Z,77.81
2023-05-05T03:52:20.131Z,77.55
2023-05-05T03:53:20.119Z,76.96
2023-05-05T03:54:20.141Z,75.62
2023-05-05T03:55:20.162Z,75.69
2023-05-05T03:56:20.205Z,76.14
2023-05-05T03:57:20.269Z,74.93
2023-05-05T03:58:20.320Z,74.18
2023-05-05T03:59:20.348Z,76.85
2023-05-05T04:00:20.416Z,75.04
2023-05-05T04:01:20.451Z,74.90
2023-05-05T04:02:20.553Z,75.86
2023-05-05T04:03:20.600Z,75.27
2023-05-05T04:04:20.593Z,76.31
2023-05-05T04:05:20.610Z,72.61
2023-05-05T04:06:20.660Z,76.09
2023-05-05T04:07:20.702Z,73.63
2023-05-05T04:08:20.821Z,75.09
2023-05-05T04:09:20.827Z,72.27
2023-05-05T04:10:20.824Z,73.97
2023-05-05T04:11:20.871Z,73.65
2023-05-05T04:12:20.917Z,73.68
2023-05-05T04:13:20.936Z,72.49
2023-05-05T04:14:20.970Z,74.65
2023-05-05T04:15:21.031Z,71.00
2023-05-05T04:16:21.109Z,72.70
2023-05-05T04:17:21.130Z,72.78
2023-05-05T04:18:21.170Z,72.14
2023-05-05T04:19:21.231Z,71.94
2023-05-05T04:20:21.221Z,72.58
2023-05-05T04:21:21.293Z,72.07
2023-05-05T04:22:21.333Z,72.54
2023-05-05T04:23:21.383Z,74.33
2023-05-05T04:24:21.427Z,72.76
2023-05-05T04:25:21.494Z,72.46
2023-05-05T04:26:21.493Z,73.04
2023-05-05T04:27:21.588Z,71.90
2023-05-05T04:28:21.990Z,72.18
2023-05-05T04:29:21.646Z,73.56
2023-05-05T04:30:21.701Z,69.95
2023-05-05T04:31:21.793Z,70.96
2023-05-05T04:32:21.810Z,71.86
2023-05-05T04:33:21.820Z,72.72
2023-05-05T04:34:21.870Z,69.24
2023-05-05T04:35:21.902Z,70.88
2023-05-05T04:36:21.930Z,71.59
2023-05-05T04:37:21.978Z,70.65
2023-05-05T04:38:22.082Z,69.07
2023-05-05T04:39:22.097Z,69.94
2023-05-05T04:40:22.151Z,69.29
2023-05-05T04:41:22.175Z,72.35
2023-05-05T04:42:22.244Z,68.13
2023-05-05T04:43:22.261Z,70.55
2023-05-05T04:44:22.286Z,68.98
2023-05-05T04:45:22.310Z,69.80
2023-05-05T04:46:22.430Z,67.26
2023-05-05T04:47:22.434Z,68.84
2023-05-05T04:48:22.462Z,67.64
2023-05-05T04:49:22.516Z,66.24
2023-05-05T04:50:22.607Z,61.25
2023-05-05T04:51:22.632Z,63.42
2023-05-05T04:52:22.674Z,64.87
2023-05-05T04:53:22.676Z,59.33
2023-05-05T04:54:22.757Z,58.89
2023-05-05T04:55:22.760Z,60.62
2023-05-05T04:56:22.857Z,63.81
2023-05-05T04:57:22.872Z,65.28
2023-05-05T04:58:22.948Z,65.46
2023-05-05T04:59:22.982Z,64.42
2023-05-05T05:00:23.010Z,65.54
2023-05-05T05:01:23.148Z,66.30
2023-05-05T05:02:23.279Z,65.53
2023-05-05T05:03:23.287Z,65.79
2023-05-05T05:04:23.285Z,67.18
2023-05-05T05:05:23.331Z,68.94
2023-05-05T05:06:23.385Z,68.22
2023-05-05T05:07:23.443Z,68.80
2023-05-05T05:08:23.533Z,69.74
2023-05-05T05:09:23.614Z,71.12
2023-05-05T05:10:23.654Z,71.81
2023-05-05T05:11:23.722Z,71.42
2023-05-05T05:12:23.764Z,70.07
2023-05-05T05:13:23.955Z,72.49
2023-05-05T05:14:23.880Z,74.33
2023-05-05T05:15:23.995Z,73.29
2023-05-05T05:16:24.040Z,74.39
2023-05-05T05:17:24.143Z,77.09
2023-05-05T05:18:24.166Z,75.36
2023-05-05T05:19:24.193Z,75.45
2023-05-05T05:20:24.282Z,78.24
2023-05-05T05:21:24.335Z,77.25
2023-05-05T05:22:24.393Z,78.33
2023-05-05T05:23:24.464Z,78.83
2023-05-05T05:24:24.512Z,78.83
2023-05-05T05:25:24.537Z,77.41
2023-05-05T05:26:24.643Z,81.14
2023-05-05T05:27:24.659Z,78.48
2023-05-05T05:28:24.763Z,80.55
2023-05-05T05:29:24.807Z,80.19
2023-05-05T05:30:24.832Z,80.22
2023-05-05T05:31:24.962Z,79.20
2023-05-05T05:32:24.971Z,78.51
2023-05-05T05:33:25.055Z,78.64
2023-05-05T05:34:25.079Z,75.92
2023-05-05T05:35:25.181Z,80.97
2023-05-05T05:36:25.193Z,79.42
2023-05-05T05:37:25.254Z,79.94
2023-05-05T05:38:25.366Z,82.61
2023-05-05T05:39:25.394Z,81.30
2023-05-05T05:40:25.486Z,80.72
2023-05-05T05:41:25.490Z,80.93
2023-05-05T05:42:25.547Z,81.42
2023-05-05T05:43:25.610Z,80.84
2023-05-05T05:44:25.658Z,86.43
2023-05-05T05:45:25.707Z,86.28
2023-05-05T05:46:25.788Z,85.74
2023-05-05T05:47:25.827Z,88.20
2023-05-05T05:48:25.878Z,89.87
2023-05-05T05:49:25.951Z,96.04
2023-05-05T05:50:25.990Z,98.18
2023-05-05T05:51:26.113Z,98.54
2023-05-05T05:52:26.126Z,102.45
2023-05-05T05:53:26.199Z,112.40
2023-05-05T05:54:26.252Z,112.56
2023-05-05T05:55:26.293Z,114.46
2023-05-05T05:56:26.796Z,116.51
2023-05-05T05:57:26.391Z,122.19
2023-05-05T05:58:26.478Z,123.63
2023-05-05T05:59:26.503Z,126.10
2023-05-05T06:00:26.542Z,131.95
2023-05-05T06:01:26.615Z,139.42
2023-05-05T06:02:26.676Z,141.92
2023-05-05T06:03:26.906Z,147.33
2023-05-05T06:04:26.791Z,147.12
2023-05-05T06:05:26.727Z,150.91
2023-05-05T06:06:26.797Z,155.51
2023-05-05T06:07:26.790Z,158.27
2023-05-05T06:08:26.836Z,156.44
2023-05-05T06:09:26.867Z,160.32
2023-05-05T06:10:28.340Z,162.55
2023-05-05T06:11:26.900Z,167.72
2023-05-05T06:12:26.877Z,173.30
2023-05-05T06:13:26.899Z,173.45
2023-05-05T06:14:26.925Z,181.44
2023-05-05T06:15:26.942Z,180.85
2023-05-05T06:16:27.047Z,185.92
2023-05-05T06:17:26.994Z,185.40
2023-05-05T06:18:27.027Z,188.43
2023-05-05T06:19:26.974Z,193.15
2023-05-05T06:20:26.976Z,196.36
2023-05-05T06:21:26.979Z,198.84
2023-05-05T06:22:26.974Z,199.62
2023-05-05T06:23:27.715Z,202.53
2023-05-05T06:24:26.976Z,204.96
2023-05-05T06:25:26.990Z,207.36
2023-05-05T06:26:26.977Z,209.66
2023-05-05T06:27:26.965Z,213.45
2023-05-05T06:28:26.954Z,214.80
2023-05-05T06:29:26.976Z,215.31
2023-05-05T06:30:26.970Z,218.14
2023-05-05T06:31:26.962Z,217.62
2023-05-05T06:32:26.951Z,220.64
2023-05-05T06:33:27.003Z,224.58
2023-05-05T06:34:26.957Z,225.76
2023-05-05T06:35:26.979Z,225.66
2023-05-05T06:36:27.037Z,227.04
2023-05-05T06:37:27.009Z,230.05
2023-05-05T06:38:27.040Z,230.47
2023-05-05T06:39:27.086Z,231.28
2023-05-05T06:40:27.113Z,233.94
2023-05-05T06:41:27.144Z,232.09
2023-05-05T06:42:27.198Z,235.02
2023-05-05T06:43:27.257Z,238.54
2023-05-05T06:44:27.271Z,239.05
2023-05-05T06:45:27.329Z,243.97
2023-05-05T06:46:27.440Z,245.43
2023-05-05T06:47:27.859Z,249.72
2023-05-05T06:48:27.501Z,248.41
2023-05-05T06:49:27.710Z,248.76
2023-05-05T06:50:27.693Z,250.00
2023-05-05T06:51:27.687Z,247.42
2023-05-05T06:52:27.722Z,248.30
2023-05-05T06:53:27.804Z,244.49
2023-05-05T06:54:27.934Z,241.26
2023-05-05T06:55:27.945Z,244.77
2023-05-05T06:56:27.972Z,242.56
2023-05-05T06:57:28.037Z,243.13
2023-05-05T06:58:28.117Z,239.57
2023-05-05T06:59:28.159Z,243.37
2023-05-05T07:00:28.292Z,243.38
2023-05-05T07:01:28.346Z,237.93
2023-05-05T07:02:28.510Z,242.41
2023-05-05T07:03:28.467Z,241.12
2023-05-05T07:04:28.482Z,231.56
2023-05-05T07:05:28.603Z,238.14
2023-05-05T07:06:28.608Z,231.67
2023-05-05T07:07:28.717Z,233.85
2023-05-05T07:08:28.781Z,232.72
2023-05-05T07:09:28.841Z,231.46
2023-05-05T07:10:28.858Z,226.69
2023-05-05T07:11:28.950Z,226.79
2023-05-05T07:12:29.016Z,220.59
2023-05-05T07:13:29.056Z,219.40
2023-05-05T07:14:29.134Z,217.57
2023-05-05T07:15:29.890Z,211.09
2023-05-05T07:16:29.307Z,214.36
2023-05-05T07:17:29.338Z,211.51
2023-05-05T07:18:29.530Z,210.15
2023-05-05T07:19:29.459Z,205.74
2023-05-05T07:20:29.529Z,207.69
2023-05-05T07:21:29.632Z,205.56
2023-05-05T07:22:29.645Z,210.18
2023-05-05T07:23:29.701Z,209.40
2023-05-05T07:24:29.764Z,208.74
2023-05-05T07:25:29.783Z,210.95
2023-05-05T07:26:29.852Z,211.63
2023-05-05T07:27:29.937Z,212.22
2023-05-05T07:28:29.993Z,216.71
2023-05-05T07:29:30.039Z,214.14
2023-05-05T07:30:30.103Z,214.99
2023-05-05T07:31:30.200Z,209.47
2023-05-05T07:32:30.211Z,207.06
2023-05-05T07:33:30.250Z,206.51
2023-05-05T07:34:30.394Z,207.61
2023-05-05T07:35:30.370Z,206.78
2023-05-05T07:36:30.441Z,207.42
2023-05-05T07:37:30.465Z,201.08
2023-05-05T07:38:30.522Z,196.60
2023-05-05T07:39:30.602Z,205.40
2023-05-05T07:40:30.646Z,213.70
2023-05-05T07:41:30.629Z,217.32
2023-05-05T07:42:30.823Z,216.48
2023-05-05T07:43:30.741Z,214.46
2023-05-05T07:44:30.773Z,209.81
2023-05-05T07:45:30.827Z,207.19
2023-05-05T07:46:30.883Z,204.94
2023-05-05T07:47:31.336Z,207.87
2023-05-05T07:48:30.969Z,212.23
2023-05-05T07:49:31.012Z,209.19
2023-05-05T07:50:31.140Z,211.04
2023-05-05T07:51:32.017Z,210.95
2023-05-05T07:52:45.272Z,209.49
2023-05-05T07:53:32.174Z,209.65
2023-05-05T07:54:31.173Z,208.50
2023-05-05T07:55:31.156Z,209.37
2023-05-05T07:56:31.121Z,209.66
2023-05-05T07:57:31.130Z,209.76
2023-05-05T07:58:31.116Z,210.60
2023-05-05T07:59:31.115Z,205.35
2023-05-05T08:00:31.126Z,206.28
2023-05-05T08:01:31.114Z,205.48
2023-05-05T08:02:31.283Z,202.43
2023-05-05T08:03:31.362Z,205.43
2023-05-05T08:04:31.309Z,205.65
2023-05-05T08:05:31.371Z,207.40
2023-05-05T08:06:31.547Z,206.32
2023-05-05T08:07:31.444Z,205.88
2023-05-05T08:08:31.505Z,204.70
2023-05-05T08:09:31.564Z,200.56
2023-05-05T08:10:31.624Z,193.76
2023-05-05T08:11:31.695Z,189.74
2023-05-05T08:12:31.822Z,188.71
2023-05-05T08:13:31.825Z,188.95
2023-05-05T08:14:31.883Z,196.87
2023-05-05T08:15:31.946Z,195.22
2023-05-05T08:16:32.033Z,196.05
2023-05-05T08:17:32.095Z,189.72
2023-05-05T08:18:32.112Z,190.86
2023-05-05T08:19:32.167Z,193.51
2023-05-05T08:20:32.228Z,194.08
2023-05-05T08:21:32.323Z,195.56
2023-05-05T08:22:32.425Z,195.54
2023-05-05T08:23:32.416Z,195.85
2023-05-05T08:24:32.490Z,196.57
2023-05-05T08:25:32.551Z,194.32
2023-05-05T08:26:32.595Z,198.02
2023-05-05T08:27:32.666Z,199.62
2023-05-05T08:28:32.748Z,201.79
2023-05-05T08:29:32.755Z,201.93
2023-05-05T08:30:33.369Z,202.29
2023-05-05T08:31:32.961Z,199.07
2023-05-05T08:32:32.995Z,196.96
2023-05-05T08:33:32.987Z,198.61
2023-05-05T08:34:33.041Z,201.37
2023-05-05T08:35:33.118Z,201.59
2023-05-05T08:36:33.151Z,202.52
2023-05-05T08:37:33.219Z,200.00
2023-05-05T08:38:33.443Z,186.96
2023-05-05T08:39:33.347Z,188.83
2023-05-05T08:40:33.383Z,180.08
2023-05-05T08:41:33.448Z,170.09
2023-05-05T08:42:37.814Z,166.01
2023-05-05T08:43:34.518Z,166.21
2023-05-05T08:44:33.511Z,163.82
2023-05-05T08:45:33.488Z,156.86
2023-05-05T08:46:33.545Z,158.89
2023-05-05T08:47:33.598Z,153.09
2023-05-05T08:48:33.633Z,161.07
2023-05-05T08:49:33.661Z,153.20
2023-05-05T08:50:33.726Z,149.22
2023-05-05T08:51:33.926Z,146.10
2023-05-05T08:52:34.035Z,149.16
2023-05-05T08:53:33.921Z,147.71
2023-05-05T08:54:33.914Z,143.32
2023-05-05T08:55:33.971Z,140.36
2023-05-05T08:56:33.974Z,136.41
2023-05-05T08:57:33.984Z,131.79
2023-05-05T08:58:33.970Z,134.44
2023-05-05T08:59:33.994Z,131.50
2023-05-05T09:00:34.027Z,131.31
2023-05-05T09:01:34.164Z,129.72
2023-05-05T09:02:34.191Z,131.39
2023-05-05T09:03:34.151Z,126.55
2023-05-05T09:04:34.056Z,125.72
2023-05-05T09:05:34.081Z,124.95
2023-05-05T09:06:34.197Z,120.39
2023-05-05T09:07:34.373Z,119.28
2023-05-05T09:08:34.177Z,115.43
2023-05-05T09:09:34.154Z,117.80
2023-05-05T09:10:34.215Z,119.44
2023-05-05T09:11:34.295Z,117.33
2023-05-05T09:12:34.192Z,114.41
2023-05-05T09:13:34.188Z,112.58
2023-05-05T09:14:34.186Z,109.46
2023-05-05T09:15:34.204Z,106.09
2023-05-05T09:16:34.273Z,105.44
2023-05-05T09:17:34.236Z,100.62
2023-05-05T09:18:34.252Z,101.11
2023-05-05T09:19:34.236Z,97.27
2023-05-05T09:20:34.260Z,95.46
2023-05-05T09:21:34.239Z,92.62
2023-05-05T09:22:34.404Z,87.64
2023-05-05T09:23:34.324Z,89.64
2023-05-05T09:24:34.284Z,92.80
2023-05-05T09:25:34.349Z,88.68
2023-05-05T09:26:34.541Z,87.14
2023-05-05T09:27:34.376Z,85.72
2023-05-05T09:28:34.416Z,80.84
2023-05-05T09:29:34.475Z,83.02
2023-05-05T09:30:34.491Z,82.67
2023-05-05T09:31:34.551Z,87.04
2023-05-05T09:32:34.567Z,99.71
2023-05-05T09:33:34.603Z,112.59
2023-05-05T09:34:34.629Z,125.83
2023-05-05T09:35:34.704Z,135.31
2023-05-05T09:36:34.732Z,145.17
2023-05-05T09:37:34.828Z,151.83
2023-05-05T09:38:34.832Z,159.66
2023-05-05T09:39:34.975Z,173.60
2023-05-05T09:40:34.986Z,183.23
2023-05-05T09:41:35.039Z,181.08
2023-05-05T09:42:35.440Z,188.59
2023-05-05T09:43:35.078Z,198.71
2023-05-05T09:44:35.173Z,201.15
2023-05-05T09:45:35.179Z,209.80
2023-05-05T09:46:35.241Z,220.07
2023-05-05T09:47:35.472Z,223.19
2023-05-05T09:48:35.293Z,229.75
2023-05-05T09:49:35.303Z,236.34
2023-05-05T09:50:35.314Z,240.18
2023-05-05T09:51:35.332Z,238.95
2023-05-05T09:52:35.405Z,250.00
2023-05-05T09:53:35.382Z,250.00
2023-05-05T09:54:35.385Z,249.47
2023-05-05T09:55:35.433Z,248.23
2023-05-05T09:56:35.414Z,250.00
2023-05-05T09:57:35.897Z,249.90
2023-05-05T09:58:35.461Z,246.08
2023-05-05T09:59:35.401Z,248.94
2023-05-05T10:00:35.458Z,250.00
2023-05-05T10:01:35.497Z,246.36
2023-05-05T10:02:35.484Z,246.02
2023-05-05T10:03:35.483Z,248.57
2023-05-05T10:04:35.494Z,249.03
2023-05-05T10:05:35.457Z,245.82
2023-05-05T10:06:35.473Z,245.68
2023-05-05T10:07:35.451Z,249.37
2023-05-05T10:08:35.490Z,249.76
2023-05-05T10:09:35.515Z,250.00
2023-05-05T10:10:35.543Z,250.00
2023-05-05T10:11:35.603Z,250.00
2023-05-05T10:12:35.647Z,245.86
2023-05-05T10:13:35.689Z,247.35
2023-05-05T10:14:35.782Z,248.58
2023-05-05T10:15:35.755Z,248.31
2023-05-05T10:16:35.880Z,249.41
2023-05-05T10:17:35.921Z,249.88
2023-05-05T10:18:35.984Z,249.73
2023-05-05T10:19:35.967Z,249.78
2023-05-05T10:20:36.058Z,247.87
2023-05-05T10:21:36.131Z,245.29
2023-05-05T10:22:36.144Z,246.23
2023-05-05T10:23:36.214Z,246.30
2023-05-05T10:24:36.289Z,249.11
2023-05-05T10:25:36.307Z,249.38
2023-05-05T10:26:36.373Z,250.00
2023-05-05T10:27:36.415Z,248.25
2023-05-05T10:28:36.534Z,246.39
2023-05-05T10:29:36.495Z,249.99
2023-05-05T10:30:36.615Z,247.71
2023-05-05T10:31:36.618Z,250.19
2023-05-05T10:33:37.997Z,249.29
2023-05-05T10:34:36.663Z,246.78
2023-05-05T10:35:36.620Z,245.86
2023-05-05T10:36:36.620Z,244.18
2023-05-05T10:37:36.632Z,243.73
2023-05-05T10:38:36.601Z,241.31
2023-05-05T10:39:36.613Z,243.56
2023-05-05T10:40:36.556Z,244.04
2023-05-05T10:41:36.545Z,242.54
2023-05-05T10:42:36.582Z,235.95
2023-05-05T10:43:36.631Z,239.78
2023-05-05T10:44:36.651Z,240.35
2023-05-05T10:45:36.765Z,240.89
2023-05-05T10:46:36.870Z,234.15
2023-05-05T10:47:36.861Z,237.22
2023-05-05T10:48:36.828Z,238.54
2023-05-05T10:49:36.880Z,241.90
2023-05-05T10:50:36.879Z,240.94
2023-05-05T10:51:40.601Z,236.90
2023-05-05T10:52:36.982Z,237.14
2023-05-05T10:53:36.967Z,238.78
2023-05-05T10:54:38.352Z,243.15
2023-05-05T10:55:36.936Z,250.52
2023-05-05T10:56:36.948Z,262.85
2023-05-05T10:57:36.926Z,252.39
2023-05-05T10:58:51.321Z,245.29
2023-05-05T10:59:38.199Z,245.59
2023-05-05T11:00:36.916Z,246.34
2023-05-05T11:01:36.959Z,247.44
2023-05-05T11:02:37.034Z,245.95
2023-05-05T11:03:36.917Z,244.10
2023-05-05T11:04:36.866Z,244.49
2023-05-05T11:05:36.843Z,241.83
2023-05-05T11:06:36.862Z,241.39
2023-05-05T11:07:36.859Z,245.97
2023-05-05T11:08:36.880Z,242.88
2023-05-05T11:09:36.919Z,245.38
2023-05-05T11:10:36.991Z,240.66
2023-05-05T11:11:37.017Z,241.62
2023-05-05T11:12:38.938Z,242.97
2023-05-05T11:13:37.125Z,236.59
2023-05-05T11:14:37.180Z,235.51
2023-05-05T11:15:37.244Z,231.77
2023-05-05T11:16:37.319Z,227.24
2023-05-05T11:17:37.326Z,229.42
2023-05-05T11:18:37.466Z,224.52
2023-05-05T11:19:37.443Z,222.38
2023-05-05T11:20:37.485Z,220.41
2023-05-05T11:21:37.503Z,216.57
2023-05-05T11:22:37.558Z,219.80
2023-05-05T11:23:37.614Z,219.47
2023-05-05T11:24:37.659Z,221.65
2023-05-05T11:25:38.334Z,220.69
2023-05-05T11:26:37.743Z,217.45
2023-05-05T11:27:37.796Z,217.96
2023-05-05T11:28:37.909Z,221.02
2023-05-05T11:29:37.887Z,218.71
2023-05-05T11:30:37.946Z,216.49
2023-05-05T11:31:38.124Z,212.42
2023-05-05T11:32:38.079Z,216.63
2023-05-05T11:33:38.460Z,205.50
2023-05-05T11:34:38.226Z,193.71
2023-05-05T11:35:38.201Z,189.00
2023-05-05T11:36:38.270Z,181.10
2023-05-05T11:37:38.344Z,180.45
2023-05-05T11:38:39.477Z,161.69
2023-05-05T11:39:38.463Z,159.48
2023-05-05T11:40:38.488Z,154.82
2023-05-05T11:41:38.545Z,148.91
2023-05-05T11:42:38.612Z,147.79
2023-05-05T11:43:38.617Z,138.73
2023-05-05T11:44:38.681Z,137.44
2023-05-05T11:45:38.732Z,135.26
2023-05-05T11:46:38.859Z,136.96
2023-05-05T11:47:38.900Z,134.32
2023-05-05T11:48:38.900Z,121.69
2023-05-05T11:49:38.987Z,119.39
2023-05-05T11:50:39.150Z,108.85
2023-05-05T11:51:39.050Z,111.28
2023-05-05T11:52:39.079Z,106.00
2023-05-05T11:53:39.117Z,99.96
2023-05-05T11:54:39.192Z,95.86
2023-05-05T11:55:39.200Z,103.62
2023-05-05T11:56:39.189Z,100.03
2023-05-05T11:57:39.209Z,93.32
2023-05-05T11:58:39.274Z,83.71
2023-05-05T11:59:39.245Z,84.51
2023-05-05T12:00:39.263Z,81.45
2023-05-05T12:01:39.249Z,81.35
2023-05-05T12:02:39.329Z,78.35
2023-05-05T12:03:39.402Z,73.73
2023-05-05T12:04:39.260Z,73.66
2023-05-05T12:05:39.235Z,73.29
2023-05-05T12:06:39.386Z,65.22
2023-05-05T12:07:39.256Z,64.84
2023-05-05T12:08:39.243Z,64.13
2023-05-05T12:09:39.219Z,59.10
2023-05-05T12:10:39.230Z,59.69
2023-05-05T12:11:39.202Z,58.29
2023-05-05T12:12:39.357Z,59.46
2023-05-05T12:13:39.186Z,57.69
2023-05-05T12:14:39.204Z,50.92
2023-05-05T12:15:39.199Z,42.99
2023-05-05T12:16:39.237Z,52.15
2023-05-05T12:17:39.205Z,50.90
2023-05-05T12:18:39.202Z,50.84
2023-05-05T12:19:39.180Z,48.91
2023-05-05T12:20:39.189Z,43.88
2023-05-05T12:21:39.161Z,37.95
2023-05-05T12:22:39.327Z,35.96
2023-05-05T12:23:39.165Z,25.55
2023-05-05T12:24:39.167Z,25.62
2023-05-05T12:25:39.196Z,24.77
2023-05-05T12:26:39.255Z,26.13
2023-05-05T12:27:39.310Z,24.28
2023-05-05T12:28:39.180Z,25.54
2023-05-05T12:29:39.223Z,30.21
2023-05-05T12:30:39.229Z,37.19
2023-05-05T12:31:39.194Z,35.93
2023-05-05T12:32:39.272Z,37.42
2023-05-05T12:33:39.232Z,28.06
2023-05-05T12:34:39.237Z,28.55
2023-05-05T12:35:39.239Z,28.81
2023-05-05T12:36:39.254Z,31.44
2023-05-05T12:37:39.263Z,26.64
2023-05-05T12:38:39.333Z,25.39
2023-05-05T12:39:39.286Z,27.15
2023-05-05T12:40:39.277Z,29.01
2023-05-05T12:41:39.275Z,27.20